Etusivu
METAR-TAF:

METAR-TAF

Lentoasemat :

Craig, Colorado, Yhdysvallat

Leveyspiiri: 40-29-36N, Pituuspiiri: 107-31-25W, korkeus merenpinnasta: 1888 m

Tämänhetkinen sää

Tämä raportti tehtiin 1 tunti ja 9 minuuttia sitten, kello 18.53 UTC
Tuuli 5 kn lounaasta
Lämpötila -14°C
Kosteus 66%
Ilmanpaine 1029 hPa
Näkyvyys: 16.1 km
selkeää

METAR: KCAG 211853Z AUTO 22005KT 10SM CLR M14/M19 A3038 RMK AO2 SLP419 T11391194

Aika: 13:02 (20:02 UTC)


TAF: puuttuu

Säähavainnot ja -ennusteet yli 4000 lentoasemalta (METAR- ja TAF-raportit).

Käytössä olevat sääasemat on merkitty karttaan keltaisilla ja punaisilla pisteillä.

Aseta hiiri pisteen päälle nähdäksesi sääaseman nimen.

Klikkaa sitten nähdäksesi säähavainnot ja -ennusteet.

Kartan vaihtaminen: klikkaa mustalla rastilla varustettuja vihreitä pisteitä, niin voit zoomata sisään; viivalla varustettua vihreää pistettä, niin voit zoomata ulos tai vihreitä nuolia, niin pääset viereisille kartoille.


METAR-TAF: